Time;durP1;ratioP1;P1;durP2;ratioP2;P2;SDS_P1;SDS_P2;PMS_P1;PMS_P2;Temp;Humidity;BMP_temperature;BMP_pressure;BME280_temperature;BME280_humidity;BME280_pressure;Samples;Min_cycle;Max_cycle;Signal;HPM_P1;HPM_P2
2021/06/22 00:01:43;;;;;;;6.70;3.50;;;;;;;;;;5075370;28;20194;-57
2021/06/22 00:04:09;;;;;;;9.77;3.17;;;19.30;99.90;;;;;;5075318;28;20221;-62
2021/06/22 00:06:34;;;;;;;5.80;2.67;;;20.30;99.90;;;;;;5074206;28;20187;-56
2021/06/22 00:09:00;;;;;;;2.07;1.77;;;19.90;99.90;;;;;;5076104;28;20649;-56
2021/06/22 00:11:26;;;;;;;8.13;1.70;;;20.00;99.90;;;;;;5074006;28;20210;-63
2021/06/22 00:13:51;;;;;;;2.33;1.47;;;19.00;99.90;;;;;;5075552;28;20175;-58
2021/06/22 00:16:17;;;;;;;3.50;1.00;;;;;;;;;;5075119;28;20213;-63
2021/06/22 00:18:43;;;;;;;5.47;1.30;;;19.90;99.90;;;;;;5075596;28;20197;-57
2021/06/22 00:21:08;;;;;;;2.50;1.20;;;19.00;99.90;;;;;;5075090;28;20210;-55
2021/06/22 00:23:34;;;;;;;6.03;1.17;;;;;;;;;;5073973;28;20260;-63
2021/06/22 00:26:00;;;;;;;4.67;1.07;;;;;;;;;;5074219;28;20171;-62
2021/06/22 00:28:26;;;;;;;3.17;1.00;;;19.70;99.90;;;;;;5073710;28;20190;-58
2021/06/22 00:30:51;;;;;;;2.00;1.00;;;19.80;99.90;;;;;;5075076;28;20171;-62
2021/06/22 00:33:17;;;;;;;4.60;1.30;;;19.80;99.90;;;;;;5074916;28;20269;-62
2021/06/22 00:35:43;;;;;;;2.90;1.20;;;;;;;;;;5075039;28;20312;-57
2021/06/22 00:38:08;;;;;;;7.93;1.40;;;19.40;99.90;;;;;;5073766;28;20206;-57
2021/06/22 00:40:34;;;;;;;1.90;1.10;;;19.30;99.90;;;;;;5073850;28;20179;-62
2021/06/22 00:42:59;;;;;;;1.20;1.07;;;19.10;99.90;;;;;;5053587;28;20208;-61
2021/06/22 00:45:31;;;;;;;5.30;1.40;;;19.40;99.90;;;;;;5054719;28;20659;-54
2021/06/22 00:47:57;;;;;;;2.13;1.20;;;18.30;99.90;;;;;;5054578;28;20186;-59
2021/06/22 00:50:23;;;;;;;3.07;1.40;;;18.80;99.90;;;;;;5054647;28;20645;-59
2021/06/22 00:52:49;;;;;;;3.00;1.57;;;19.20;99.90;;;;;;5053681;28;20195;-62
2021/06/22 00:55:28;;;;;;;4.77;2.07;;;18.40;99.90;;;;;;5054204;28;20524;-62
2021/06/22 00:57:58;;;;;;;2.50;1.57;;;18.90;99.90;;;;;;5055504;28;20673;-59
2021/06/22 01:00:23;;;;;;;3.13;1.77;;;18.90;99.90;;;;;;5054278;28;20627;-56
2021/06/22 01:02:49;;;;;;;2.53;1.60;;;18.80;99.90;;;;;;5054572;28;20216;-59
2021/06/22 01:05:15;;;;;;;3.83;2.23;;;18.70;99.90;;;;;;5054067;28;20167;-63
2021/06/22 01:07:40;;;;;;;3.93;2.00;;;19.30;99.90;;;;;;5054506;28;20198;-57
2021/06/22 01:10:07;;;;;;;5.87;1.60;;;19.20;99.90;;;;;;5054397;28;20173;-61
2021/06/22 01:12:32;;;;;;;4.20;2.30;;;19.50;99.90;;;;;;5053249;28;20190;-58
2021/06/22 01:14:58;;;;;;;3.57;1.87;;;19.80;99.90;;;;;;5054287;28;20234;-58
2021/06/22 01:17:23;;;;;;;3.90;1.93;;;19.80;99.90;;;;;;5054094;28;20272;-59
2021/06/22 01:19:49;;;;;;;3.37;2.03;;;20.30;99.90;;;;;;5053109;28;20167;-57
2021/06/22 01:22:15;;;;;;;3.77;1.87;;;20.20;99.90;;;;;;5053745;28;20531;-58
2021/06/22 01:24:40;;;;;;;7.23;2.00;;;19.70;99.90;;;;;;5053684;28;20636;-63
2021/06/22 01:27:08;;;;;;;2.90;1.80;;;20.30;99.90;;;;;;5053156;28;20191;-62
2021/06/22 01:29:33;;;;;;;4.50;1.90;;;19.90;99.90;;;;;;5054052;28;20190;-63
2021/06/22 01:31:59;;;;;;;5.03;1.93;;;20.50;99.90;;;;;;5052727;28;20171;-58
2021/06/22 01:34:26;;;;;;;6.47;1.93;;;20.20;99.90;;;;;;5054302;28;20187;-58
2021/06/22 01:36:54;;;;;;;5.87;2.10;;;20.10;99.90;;;;;;5052618;28;20215;-59
2021/06/22 01:39:19;;;;;;;3.33;1.70;;;20.00;99.90;;;;;;5053915;28;20187;-63
2021/06/22 01:41:45;;;;;;;4.33;2.00;;;20.10;99.90;;;;;;5053111;28;20266;-59
2021/06/22 01:44:11;;;;;;;3.03;1.53;;;20.10;99.90;;;;;;5053541;28;20210;-62
2021/06/22 01:46:37;;;;;;;2.70;2.23;;;20.20;99.90;;;;;;5053964;28;20302;-55
2021/06/22 01:49:03;;;;;;;3.93;2.13;;;19.90;99.90;;;;;;5054272;28;20516;-62
2021/06/22 01:51:29;;;;;;;3.60;2.20;;;19.30;99.90;;;;;;5053602;28;20179;-59
2021/06/22 01:53:56;;;;;;;2.10;1.80;;;19.30;99.90;;;;;;5052553;28;20203;-55
2021/06/22 01:56:24;;;;;;;2.97;2.10;;;19.30;99.90;;;;;;5053744;28;20172;-59
2021/06/22 01:58:50;;;;;;;2.70;1.97;;;19.70;99.90;;;;;;5053053;28;20171;-59
2021/06/22 02:01:16;;;;;;;2.80;1.90;;;18.60;99.90;;;;;;5053211;28;20171;-59
2021/06/22 02:03:41;;;;;;;4.37;1.90;;;18.70;99.90;;;;;;5053347;28;20207;-62
2021/06/22 02:06:07;;;;;;;7.47;2.23;;;18.50;99.90;;;;;;5053543;28;20199;-59
2021/06/22 02:08:33;;;;;;;5.63;2.53;;;;;;;;;;5053305;28;20191;-59
2021/06/22 02:10:59;;;;;;;5.90;2.50;;;;;;;;;;5052471;28;20179;-56
2021/06/22 02:13:27;;;;;;;5.00;2.50;;;18.90;99.90;;;;;;5054075;28;20218;-62
2021/06/22 02:15:54;;;;;;;8.40;2.57;;;18.90;99.90;;;;;;5052531;28;20181;-63
2021/06/22 02:18:20;;;;;;;5.27;2.73;;;18.50;99.90;;;;;;5053393;28;20588;-63
2021/06/22 02:20:45;;;;;;;4.87;2.10;;;18.30;99.90;;;;;;5053682;28;20173;-63
2021/06/22 02:23:11;;;;;;;5.57;2.60;;;18.40;99.90;;;;;;5052154;28;20231;-57
2021/06/22 02:25:38;;;;;;;4.23;2.50;;;18.40;99.90;;;;;;5053124;28;20212;-62
2021/06/22 02:28:05;;;;;;;3.90;2.20;;;18.00;99.90;;;;;;5053172;28;20649;-56
2021/06/22 02:30:31;;;;;;;4.13;2.43;;;18.80;99.90;;;;;;5052078;28;20198;-56
2021/06/22 02:32:57;;;;;;;6.43;2.40;;;18.30;99.90;;;;;;5053229;28;20189;-63
2021/06/22 02:35:23;;;;;;;5.50;2.30;;;18.00;99.90;;;;;;5051938;28;20194;-58
2021/06/22 02:37:51;;;;;;;4.67;2.60;;;17.90;99.90;;;;;;5053297;28;20205;-55
2021/06/22 02:40:17;;;;;;;7.83;2.30;;;18.80;99.90;;;;;;5052352;28;20266;-62
2021/06/22 02:42:43;;;;;;;4.67;2.60;;;18.00;99.90;;;;;;5053564;28;20292;-62
2021/06/22 02:45:09;;;;;;;7.90;2.50;;;18.40;99.90;;;;;;5053063;28;20196;-59
2021/06/22 02:47:35;;;;;;;3.90;2.20;;;18.50;99.90;;;;;;5053006;28;20331;-56
2021/06/22 02:50:00;;;;;;;4.43;2.53;;;18.50;99.90;;;;;;5054174;28;20173;-62
2021/06/22 02:52:26;;;;;;;4.70;2.00;;;;;;;;;;5056660;28;20689;-59
2021/06/22 02:54:52;;;;;;;5.03;2.47;;;;;;;;;;5062975;28;20204;-55
2021/06/22 02:57:18;;;;;;;5.37;2.60;;;18.10;99.90;;;;;;5077462;28;20199;-58
2021/06/22 02:59:44;;;;;;;5.87;2.63;;;18.50;99.90;;;;;;5075742;28;20179;-58
2021/06/22 03:02:09;;;;;;;7.27;2.93;;;18.70;99.90;;;;;;5076501;28;20260;-63
2021/06/22 03:04:36;;;;;;;6.63;2.50;;;18.60;99.90;;;;;;5075299;28;20350;-57
2021/06/22 03:07:02;;;;;;;5.90;2.40;;;18.60;99.90;;;;;;5076829;28;20205;-58
2021/06/22 03:09:28;;;;;;;3.57;2.10;;;;;;;;;;5077014;28;20190;-62
2021/06/22 03:11:55;;;;;;;5.00;2.30;;;18.10;99.90;;;;;;5075581;28;20251;-57
2021/06/22 03:14:21;;;;;;;2.80;2.00;;;18.40;99.90;;;;;;5077167;28;20176;-61
2021/06/22 03:16:47;;;;;;;6.27;2.40;;;18.40;99.90;;;;;;5076221;28;20220;-63
2021/06/22 03:19:13;;;;;;;5.03;2.30;;;17.70;99.90;;;;;;5076495;28;20516;-59
2021/06/22 03:21:43;;;;;;;6.27;2.37;;;18.40;99.90;;;;;;5075985;28;20252;-61
2021/06/22 03:24:12;;;;;;;6.90;2.43;;;18.50;99.90;;;;;;5075866;28;20215;-63
2021/06/22 03:26:38;;;;;;;4.93;2.40;;;18.30;99.90;;;;;;5076366;28;20285;-59
2021/06/22 03:29:05;;;;;;;4.60;2.50;;;;;;;;;;5075321;28;20246;-63
2021/06/22 03:31:31;;;;;;;6.37;2.37;;;;;;;;;;5076080;28;20172;-63
2021/06/22 03:33:57;;;;;;;6.27;2.30;;;;;;;;;;5075902;28;20732;-61
2021/06/22 03:36:23;;;;;;;6.47;2.67;;;18.20;99.90;;;;;;5076151;28;20156;-56
2021/06/22 03:38:49;;;;;;;8.90;2.60;;;;;;;;;;5076321;28;20165;-63
2021/06/22 03:41:15;;;;;;;6.53;2.70;;;18.40;99.90;;;;;;5074861;28;20591;-59
2021/06/22 03:43:40;;;;;;;3.47;2.67;;;18.60;99.90;;;;;;5076069;28;20199;-62
2021/06/22 03:46:06;;;;;;;6.37;2.80;;;18.40;99.90;;;;;;5075992;28;20176;-54
2021/06/22 03:48:33;;;;;;;4.77;2.87;;;17.90;99.90;;;;;;5075875;28;20286;-56
2021/06/22 03:50:58;;;;;;;4.40;2.53;;;;;;;;;;5075836;28;20159;-62
2021/06/22 03:53:24;;;;;;;3.90;2.50;;;18.60;99.90;;;;;;5074759;28;20748;-55
2021/06/22 03:55:50;;;;;;;3.73;2.37;;;18.10;99.90;;;;;;5074506;28;20180;-58
2021/06/22 03:58:16;;;;;;;4.57;2.50;;;;;;;;;;5074644;28;20247;-63
2021/06/22 04:00:41;;;;;;;5.07;2.50;;;18.10;99.90;;;;;;5075437;28;20717;-59
2021/06/22 04:03:07;;;;;;;6.90;2.60;;;18.70;99.90;;;;;;5075528;28;20262;-56
2021/06/22 04:05:32;;;;;;;7.17;2.87;;;18.40;99.90;;;;;;5074361;28;20212;-62
2021/06/22 04:08:00;;;;;;;6.87;2.60;;;18.20;99.90;;;;;;5076065;28;20247;-58
2021/06/22 04:10:27;;;;;;;5.87;2.93;;;19.10;99.90;;;;;;5074720;28;20176;-57
2021/06/22 04:12:53;;;;;;;6.27;2.70;;;18.10;99.90;;;;;;5075184;28;20204;-60
2021/06/22 04:15:19;;;;;;;5.63;2.57;;;19.00;99.90;;;;;;5075440;28;20253;-60
2021/06/22 04:17:44;;;;;;;6.30;3.20;;;19.00;99.90;;;;;;5074372;28;20312;-62
2021/06/22 04:20:11;;;;;;;7.83;2.60;;;19.00;99.90;;;;;;5075310;28;20220;-62
2021/06/22 04:22:37;;;;;;;4.40;2.97;;;;;;;;;;5074978;28;20181;-62
2021/06/22 04:25:04;;;;;;;8.67;2.90;;;18.90;99.90;;;;;;5074428;28;20256;-63
2021/06/22 04:27:29;;;;;;;7.10;2.57;;;18.80;99.90;;;;;;5074973;28;20657;-59
2021/06/22 04:29:55;;;;;;;7.27;2.90;;;18.60;99.90;;;;;;5074385;28;20201;-62
2021/06/22 04:32:21;;;;;;;4.77;2.50;;;18.20;99.90;;;;;;5075216;28;20217;-60
2021/06/22 04:34:46;;;;;;;5.43;2.70;;;18.10;99.90;;;;;;5074585;28;20178;-63
2021/06/22 04:37:12;;;;;;;6.60;3.00;;;18.50;99.90;;;;;;5075111;28;20194;-63
2021/06/22 04:39:38;;;;;;;5.60;2.67;;;;;;;;;;5075530;28;20249;-63
2021/06/22 04:42:04;;;;;;;8.03;3.03;;;;;;;;;;5074754;28;20638;-55
2021/06/22 04:44:30;;;;;;;5.00;2.60;;;19.10;99.90;;;;;;5073558;28;20224;-56
2021/06/22 04:46:55;;;;;;;10.00;3.57;;;19.70;99.90;;;;;;5074561;28;20607;-63
2021/06/22 04:49:21;;;;;;;6.10;2.83;;;19.80;99.90;;;;;;5074407;28;20178;-60
2021/06/22 04:51:47;;;;;;;4.80;2.70;;;19.50;99.90;;;;;;5073912;28;20177;-59
2021/06/22 04:54:12;;;;;;;6.77;2.70;;;20.30;99.90;;;;;;5074529;28;20198;-63
2021/06/22 04:56:39;;;;;;;5.70;2.50;;;19.20;99.90;;;;;;5073597;28;20269;-58
2021/06/22 04:59:04;;;;;;;5.37;2.60;;;20.20;99.90;;;;;;5074359;28;20651;-63
2021/06/22 05:01:30;;;;;;;6.17;3.00;;;19.30;99.90;;;;;;5073226;28;20201;-56
2021/06/22 05:03:56;;;;;;;5.07;2.57;;;19.50;99.90;;;;;;5074045;28;20285;-62
2021/06/22 05:06:22;;;;;;;6.37;2.73;;;19.60;99.90;;;;;;5074592;28;20551;-60
2021/06/22 05:08:48;;;;;;;6.30;2.67;;;19.60;99.90;;;;;;5074319;28;20620;-63
2021/06/22 05:11:14;;;;;;;5.50;2.30;;;19.70;99.90;;;;;;5072748;28;20178;-63
2021/06/22 05:13:41;;;;;;;5.33;2.30;;;19.00;99.90;;;;;;5071094;28;20243;-62
2021/06/22 05:16:08;;;;;;;4.93;2.40;;;19.60;99.90;;;;;;5054214;28;20167;-62
2021/06/22 05:18:34;;;;;;;7.17;2.67;;;19.90;99.90;;;;;;5053213;28;20547;-57
2021/06/22 05:21:00;;;;;;;4.23;2.50;;;22.20;99.90;;;;;;5055422;28;20543;-63
2021/06/22 05:23:26;;;;;;;4.53;2.43;;;;;;;;;;5053916;28;20674;-60
2021/06/22 05:25:51;;;;;;;6.93;2.70;;;19.50;99.90;;;;;;5053275;28;20685;-63
2021/06/22 05:28:17;;;;;;;3.90;2.70;;;19.70;99.90;;;;;;5054019;28;20196;-60
2021/06/22 05:30:43;;;;;;;4.87;2.73;;;19.90;99.90;;;;;;5053215;28;20204;-62
2021/06/22 05:33:09;;;;;;;4.03;2.63;;;;;;;;;;5053729;28;20184;-54
2021/06/22 05:35:35;;;;;;;4.73;3.07;;;;;;;;;;5054316;28;20180;-56
2021/06/22 05:38:01;;;;;;;5.93;2.43;;;;;;;;;;5053744;28;20274;-63
2021/06/22 05:40:26;;;;;;;5.57;2.40;;;19.80;99.90;;;;;;5053780;28;20175;-63
2021/06/22 05:42:53;;;;;;;4.73;2.57;;;20.00;99.90;;;;;;5052542;28;20215;-60
2021/06/22 05:45:18;;;;;;;5.10;2.47;;;19.70;99.90;;;;;;5053641;28;20258;-58
2021/06/22 05:47:44;;;;;;;4.77;2.40;;;20.00;99.90;;;;;;5053382;28;20299;-58
2021/06/22 05:50:10;;;;;;;4.57;2.60;;;20.30;99.90;;;;;;5053664;28;20259;-63
2021/06/22 05:52:36;;;;;;;3.93;2.50;;;20.80;99.90;;;;;;5053476;28;20262;-63
2021/06/22 05:55:03;;;;;;;3.87;2.60;;;20.90;99.90;;;;;;5053672;28;20241;-58
2021/06/22 05:57:29;;;;;;;5.37;2.70;;;20.50;99.90;;;;;;5053552;28;20488;-64
2021/06/22 05:59:55;;;;;;;7.07;2.80;;;21.10;99.90;;;;;;5052729;28;20181;-63
2021/06/22 06:02:20;;;;;;;4.60;2.60;;;20.70;99.90;;;;;;5053414;28;20187;-60
2021/06/22 06:04:46;;;;;;;6.90;2.30;;;20.80;99.90;;;;;;5053906;28;20199;-60
2021/06/22 06:07:12;;;;;;;4.20;2.67;;;;;;;;;;5053991;28;20198;-60
2021/06/22 06:09:38;;;;;;;3.93;2.43;;;;;;;;;;5053688;28;20560;-62
2021/06/22 06:12:04;;;;;;;3.97;2.67;;;21.40;99.90;;;;;;5069150;28;20259;-63
2021/06/22 06:14:30;;;;;;;4.57;2.67;;;21.50;99.90;;;;;;5053735;28;20245;-57
2021/06/22 06:16:55;;;;;;;7.53;2.83;;;21.40;99.90;;;;;;5053375;28;20195;-65
2021/06/22 06:19:21;;;;;;;5.17;2.70;;;21.50;99.90;;;;;;5052421;28;20171;-59
2021/06/22 06:21:48;;;;;;;4.77;2.37;;;21.90;99.90;;;;;;5053468;28;20210;-60
2021/06/22 06:24:14;;;;;;;6.70;2.70;;;21.70;99.90;;;;;;5068673;28;20245;-59
2021/06/22 06:26:50;;;;;;;3.73;2.40;;;21.90;99.90;;;;;;5056336;28;20563;-55
2021/06/22 06:29:33;;;;;;;5.70;2.70;;;;;;;;;;5057940;28;20147;-60
2021/06/22 06:31:58;;;;;;;6.13;2.60;;;21.70;99.90;;;;;;5050183;28;20194;-59
2021/06/22 06:34:24;;;;;;;2.53;2.13;;;21.10;99.90;;;;;;5058795;28;20175;-60
2021/06/22 06:36:50;;;;;;;3.27;2.30;;;21.40;99.90;;;;;;5057657;28;20187;-54
2021/06/22 06:39:15;;;;;;;3.30;2.20;;;22.00;99.90;;;;;;5057680;28;20176;-53
2021/06/22 06:41:41;;;;;;;4.80;2.47;;;;;;;;;;5072130;28;20539;-57
2021/06/22 06:44:07;;;;;;;6.65;2.00;;;;;;;;;;5056674;28;20192;-57
2021/06/22 06:46:32;;;;;;;3.25;2.35;;;22.70;99.90;;;;;;5058258;28;20167;-64
2021/06/22 06:48:58;;;;;;;7.93;2.60;;;;;;;;;;5055829;28;20173;-64
2021/06/22 06:51:24;;;;;;;5.43;2.28;;;23.10;99.90;;;;;;5057204;28;20184;-64
2021/06/22 06:53:50;;;;;;;4.53;2.55;;;23.00;99.90;;;;;;5055991;28;20266;-64
2021/06/22 06:56:16;;;;;;;4.20;2.20;;;;;;;;;;5057044;28;20689;-54
2021/06/22 06:58:42;;;;;;;2.83;2.22;;;23.50;99.90;;;;;;5071598;28;20185;-56
2021/06/22 07:01:07;;;;;;;4.60;2.30;;;23.40;99.90;;;;;;5056348;28;20265;-55
2021/06/22 07:03:33;;;;;;;4.68;2.47;;;23.00;99.90;;;;;;5057410;28;20250;-63
2021/06/22 07:06:00;;;;;;;3.13;1.98;;;24.00;99.90;;;;;;5056477;28;20262;-59
2021/06/22 07:08:25;;;;;;;3.10;2.30;;;23.50;99.90;;;;;;5056658;28;20229;-61
2021/06/22 07:10:51;;;;;;;4.63;2.33;;;23.10;99.90;;;;;;5056834;28;20224;-62
2021/06/22 07:13:17;;;;;;;3.40;2.22;;;23.60;99.90;;;;;;5056638;28;20587;-64
2021/06/22 07:15:43;;;;;;;4.60;2.10;;;23.50;99.90;;;;;;5055201;28;20185;-58
2021/06/22 07:18:09;;;;;;;3.92;2.30;;;23.30;99.90;;;;;;5056519;28;20606;-58
2021/06/22 07:20:35;;;;;;;3.40;2.33;;;;;;;;;;5057446;28;20182;-60
2021/06/22 07:23:01;;;;;;;3.78;2.13;;;23.10;99.90;;;;;;5056456;28;20237;-64
2021/06/22 07:25:27;;;;;;;6.80;2.30;;;22.90;99.90;;;;;;5056634;28;20171;-64
2021/06/22 07:27:54;;;;;;;2.63;1.95;;;23.00;99.90;;;;;;5061660;28;20233;-56
2021/06/22 07:30:23;;;;;;;3.97;1.92;;;23.90;99.90;;;;;;5076324;28;20257;-59
2021/06/22 07:32:53;;;;;;;2.92;1.90;;;23.50;99.90;;;;;;5075384;28;20665;-60
2021/06/22 07:35:18;;;;;;;4.32;2.00;;;24.10;99.90;;;;;;5073881;28;20182;-64
2021/06/22 07:37:45;;;;;;;3.13;1.67;;;24.10;99.90;;;;;;5078645;28;20265;-64
2021/06/22 07:40:11;;;;;;;2.33;1.70;;;24.70;99.90;;;;;;5076494;28;20189;-64
2021/06/22 07:42:37;;;;;;;3.45;1.80;;;24.60;99.90;;;;;;5074835;28;20191;-63
2021/06/22 07:45:04;;;;;;;4.20;1.77;;;24.80;99.90;;;;;;5076100;28;20201;-63
2021/06/22 07:47:30;;;;;;;5.30;2.08;;;24.40;99.90;;;;;;5076084;28;20198;-58
2021/06/22 07:49:55;;;;;;;6.35;2.13;;;24.80;99.90;;;;;;5074857;28;20166;-64
2021/06/22 07:52:21;;;;;;;5.28;1.83;;;24.30;99.90;;;;;;5075888;28;20534;-63
2021/06/22 07:54:47;;;;;;;3.25;1.98;;;25.00;99.90;;;;;;5079356;28;20206;-64
2021/06/22 07:57:13;;;;;;;4.30;1.73;;;26.30;99.90;;;;;;5076083;28;20203;-58
2021/06/22 07:59:39;;;;;;;2.40;2.03;;;26.40;99.90;;;;;;5076028;28;20179;-64
2021/06/22 08:02:04;;;;;;;2.38;1.80;;;25.20;99.90;;;;;;5074496;28;20585;-60
2021/06/22 08:04:30;;;;;;;2.80;1.80;;;25.10;99.90;;;;;;5075246;28;20213;-56
2021/06/22 08:06:56;;;;;;;1.60;1.50;;;;;;;;;;5077418;28;20216;-63
2021/06/22 08:09:22;;;;;;;2.97;1.60;;;25.20;99.90;;;;;;5074589;28;20175;-63
2021/06/22 08:11:48;;;;;;;3.38;1.80;;;;;;;;;;5079272;28;20177;-63
2021/06/22 08:14:15;;;;;;;4.43;2.05;;;25.20;99.90;;;;;;5075579;28;20198;-57
2021/06/22 08:16:41;;;;;;;3.70;2.30;;;25.10;99.90;;;;;;5075400;28;20202;-55
2021/06/22 08:19:07;;;;;;;3.75;1.83;;;25.00;99.90;;;;;;5075478;28;20253;-58
2021/06/22 08:21:32;;;;;;;2.60;1.67;;;25.50;99.90;;;;;;5075148;28;20210;-59
2021/06/22 08:23:58;;;;;;;3.35;1.90;;;25.90;99.90;;;;;;5075267;28;20203;-59
2021/06/22 08:26:23;;;;;;;3.60;2.00;;;25.30;99.90;;;;;;5070197;28;20210;-63
2021/06/22 08:28:49;;;;;;;5.38;2.10;;;;;;;;;;5074823;28;20179;-61
2021/06/22 08:31:16;;;;;;;3.25;2.00;;;;;;;;;;5073979;28;20263;-62
2021/06/22 08:33:42;;;;;;;2.00;1.63;;;25.20;99.90;;;;;;5074709;28;20257;-63
2021/06/22 08:36:07;;;;;;;3.13;2.05;;;24.60;99.90;;;;;;5074998;28;20222;-58
2021/06/22 08:38:33;;;;;;;4.20;2.10;;;24.20;99.90;;;;;;5073521;28;20662;-60
2021/06/22 08:40:59;;;;;;;4.43;2.13;;;;;;;;;;5074230;28;20183;-61
2021/06/22 08:43:24;;;;;;;4.03;2.22;;;24.00;99.90;;;;;;5072822;28;20220;-62
2021/06/22 08:45:51;;;;;;;4.95;2.47;;;24.20;99.90;;;;;;5073528;28;20171;-59
2021/06/22 08:48:17;;;;;;;3.78;1.83;;;24.60;99.90;;;;;;5073097;28;20256;-60
2021/06/22 08:50:44;;;;;;;4.03;2.22;;;24.60;99.90;;;;;;5073994;28;20175;-63
2021/06/22 08:53:13;;;;;;;3.30;1.98;;;24.80;99.90;;;;;;5069400;28;20206;-63
2021/06/22 08:55:40;;;;;;;5.15;2.53;;;25.00;99.90;;;;;;5070607;28;20147;-60
2021/06/22 08:58:08;;;;;;;4.05;2.28;;;25.00;99.90;;;;;;5070963;28;20187;-63
2021/06/22 09:00:38;;;;;;;2.92;1.75;;;25.20;99.90;;;;;;5069951;28;20202;-62
2021/06/22 09:03:06;;;;;;;2.40;1.65;;;24.80;99.90;;;;;;5072297;28;20237;-61
2021/06/22 09:05:32;;;;;;;3.60;2.00;;;;;;;;;;5071288;28;20538;-62
2021/06/22 09:07:58;;;;;;;3.78;2.05;;;24.90;99.90;;;;;;5074199;28;20275;-64
2021/06/22 09:10:32;;;;;;;4.95;2.35;;;24.70;99.90;;;;;;5075056;28;20204;-60
2021/06/22 09:13:24;;;;;;;4.30;2.05;;;24.90;99.90;;;;;;5073563;28;20186;-64
2021/06/22 09:15:53;;;;;;;3.70;2.08;;;24.80;99.90;;;;;;5074521;28;20539;-60
2021/06/22 09:18:30;;;;;;;3.67;2.13;;;25.00;99.90;;;;;;5076076;28;20570;-64
2021/06/22 09:21:07;;;;;;;3.00;1.92;;;25.20;99.90;;;;;;5074185;28;20182;-64
2021/06/22 09:23:35;;;;;;;2.38;1.80;;;25.40;99.90;;;;;;5074011;28;20188;-61
2021/06/22 09:26:08;;;;;;;2.75;1.77;;;25.30;99.90;;;;;;5073891;28;20267;-63
2021/06/22 09:28:34;;;;;;;3.47;1.77;;;25.80;99.90;;;;;;5073753;28;20252;-60
2021/06/22 09:31:04;;;;;;;5.03;2.00;;;25.90;99.90;;;;;;5074018;28;20228;-64
2021/06/22 09:33:51;;;;;;;6.70;2.33;;;26.40;99.90;;;;;;5073482;28;20205;-64
2021/06/22 09:36:26;;;;;;;4.13;1.90;;;26.30;99.90;;;;;;5074541;28;20159;-64
2021/06/22 09:38:52;;;;;;;2.90;1.80;;;26.10;99.90;;;;;;5073009;28;20557;-64
2021/06/22 09:41:26;;;;;;;3.05;1.80;;;26.10;99.90;;;;;;5074052;28;20630;-63
2021/06/22 09:44:15;;;;;;;3.53;2.05;;;26.60;99.90;;;;;;5073007;28;20566;-63
2021/06/22 09:46:43;;;;;;;4.13;1.83;;;26.80;99.90;;;;;;5073008;28;20186;-63
2021/06/22 09:49:13;;;;;;;2.38;1.90;;;27.00;99.90;;;;;;5054010;28;20176;-64
2021/06/22 09:52:29;;;;;;;2.90;1.65;;;26.90;99.90;;;;;;5053875;28;20151;-62
2021/06/22 09:54:47;;;;;;;4.22;1.63;;;27.30;99.90;;;;;;5041850;28;20229;-63
2021/06/22 09:57:16;;;;;;;3.38;1.80;;;27.40;99.90;;;;;;5053968;28;20205;-63
2021/06/22 10:00:05;;;;;;;3.17;1.73;;;27.20;99.90;;;;;;5052616;28;20175;-59
2021/06/22 10:02:48;;;;;;;3.72;1.88;;;27.00;99.90;;;;;;5054683;28;20190;-62
2021/06/22 10:05:16;;;;;;;4.82;1.95;;;26.80;99.90;;;;;;5052760;28;20609;-64
2021/06/22 10:07:42;;;;;;;4.40;1.80;;;;;;;;;;5053534;28;20245;-65
2021/06/22 10:10:09;;;;;;;2.92;1.77;;;26.20;99.90;;;;;;5053612;28;20183;-63
2021/06/22 10:12:41;;;;;;;1.77;1.60;;;26.60;99.90;;;;;;5052537;28;20179;-64
2021/06/22 10:15:08;;;;;;;1.70;1.60;;;26.80;99.90;;;;;;5053809;28;20215;-63
2021/06/22 10:17:33;;;;;;;3.95;2.13;;;26.40;99.90;;;;;;5052394;28;20203;-59
2021/06/22 10:20:01;;;;;;;4.38;2.00;;;26.40;99.90;;;;;;5057171;28;20529;-61
2021/06/22 10:22:31;;;;;;;2.80;2.03;;;27.20;99.90;;;;;;5053041;28;20168;-62
2021/06/22 10:24:57;;;;;;;4.85;2.15;;;26.80;99.90;;;;;;5052909;28;20571;-61
2021/06/22 10:27:23;;;;;;;2.60;1.92;;;26.80;99.90;;;;;;5053591;28;20191;-61
2021/06/22 10:29:52;;;;;;;3.05;1.83;;;26.90;99.90;;;;;;5053548;28;20167;-64
2021/06/22 10:32:19;;;;;;;2.00;1.60;;;26.80;99.90;;;;;;5052014;28;20617;-64
2021/06/22 10:34:50;;;;;;;1.70;1.60;;;27.00;99.90;;;;;;5053451;28;20171;-61
2021/06/22 10:37:36;;;;;;;2.70;1.90;;;27.00;99.90;;;;;;5056701;28;20195;-62
2021/06/22 10:40:06;;;;;;;2.45;1.70;;;27.20;99.90;;;;;;5052763;28;20321;-61
2021/06/22 10:42:49;;;;;;;3.63;1.77;;;27.30;99.90;;;;;;5053279;28;20199;-61
2021/06/22 10:45:15;;;;;;;3.35;1.80;;;27.30;99.90;;;;;;5053239;28;20171;-63
2021/06/22 10:47:43;;;;;;;1.88;1.70;;;27.30;99.90;;;;;;5052933;28;20236;-62
2021/06/22 10:50:30;;;;;;;2.15;1.70;;;27.50;99.90;;;;;;5053753;28;20163;-64
2021/06/22 10:53:09;;;;;;;2.78;1.55;;;27.60;99.90;;;;;;5053196;28;20155;-57
2021/06/22 10:55:41;;;;;;;2.97;1.73;;;27.50;99.90;;;;;;5055944;28;20185;-63
2021/06/22 10:58:08;;;;;;;2.30;1.70;;;28.20;99.90;;;;;;5052242;28;20293;-63
2021/06/22 11:00:49;;;;;;;2.83;1.65;;;27.40;99.90;;;;;;5053016;28;20878;-59
2021/06/22 11:03:24;;;;;;;3.17;1.65;;;27.80;99.90;;;;;;5052016;28;20230;-62
2021/06/22 11:06:02;;;;;;;3.33;2.00;;;27.60;99.90;;;;;;5053236;28;20159;-62
2021/06/22 11:08:28;;;;;;;3.13;1.55;;;27.70;99.90;;;;;;5053215;28;20667;-59
2021/06/22 11:10:54;;;;;;;4.43;1.42;;;28.80;99.90;;;;;;5057218;28;20178;-62
2021/06/22 11:13:47;;;;;;;2.83;1.55;;;28.40;99.90;;;;;;5055728;28;20183;-63
2021/06/22 11:16:12;;;;;;;2.35;1.50;;;29.10;99.90;;;;;;5056773;28;20186;-65
2021/06/22 11:18:54;;;;;;;3.08;1.58;;;29.20;99.90;;;;;;5056854;28;20195;-64
2021/06/22 11:21:23;;;;;;;2.75;1.88;;;29.10;99.90;;;;;;5056564;28;20175;-62
2021/06/22 11:24:02;;;;;;;3.08;1.63;;;29.50;99.90;;;;;;5056677;28;20244;-62
2021/06/22 11:26:29;;;;;;;2.15;1.60;;;29.70;99.90;;;;;;5056218;28;20170;-63
2021/06/22 11:28:58;;;;;;;2.30;1.20;;;29.80;99.90;;;;;;5056909;28;20186;-61
2021/06/22 11:31:43;;;;;;;1.83;1.30;;;29.60;99.90;;;;;;5055222;28;20176;-62
2021/06/22 11:34:24;;;;;;;2.85;1.20;;;29.80;99.90;;;;;;5057241;28;20608;-62
2021/06/22 11:36:55;;;;;;;2.00;1.50;;;29.70;99.90;;;;;;5055209;28;20674;-62
2021/06/22 11:39:41;;;;;;;1.58;1.40;;;29.80;99.90;;;;;;5056636;28;20171;-64
2021/06/22 11:42:07;;;;;;;2.78;1.63;;;28.90;99.90;;;;;;5025102;28;20183;-63
2021/06/22 11:44:37;;;;;;;2.33;1.25;;;29.20;99.90;;;;;;5055865;28;20222;-60
2021/06/22 11:47:04;;;;;;;1.75;1.50;;;29.50;99.90;;;;;;5071142;28;20191;-61
2021/06/22 11:49:43;;;;;;;2.25;1.50;;;29.60;99.90;;;;;;5056054;28;20258;-62
2021/06/22 11:52:14;;;;;;;1.70;1.45;;;29.70;99.90;;;;;;5055593;28;20198;-61
2021/06/22 11:54:55;;;;;;;2.47;1.38;;;29.70;99.90;;;;;;5055405;28;20163;-65
2021/06/22 11:57:27;;;;;;;2.28;1.70;;;29.60;99.90;;;;;;5055917;28;20278;-59
2021/06/22 11:59:54;;;;;;;2.33;1.55;;;30.10;99.90;;;;;;5055284;28;20164;-62
2021/06/22 12:02:20;;;;;;;1.85;1.40;;;30.10;99.90;;;;;;5057766;28;20182;-65
2021/06/22 12:04:48;;;;;;;1.73;1.48;;;29.70;99.90;;;;;;5055002;28;20717;-64
2021/06/22 12:07:14;;;;;;;2.35;1.45;;;29.90;99.90;;;;;;5071188;28;20618;-62
2021/06/22 12:09:41;;;;;;;3.58;1.73;;;29.90;99.90;;;;;;5055621;28;20175;-60
2021/06/22 12:12:07;;;;;;;2.22;1.55;;;30.30;99.90;;;;;;5054254;28;20179;-62
2021/06/22 12:14:33;;;;;;;2.92;1.73;;;30.00;99.90;;;;;;5055883;28;20228;-61
2021/06/22 12:17:00;;;;;;;3.22;1.75;;;30.60;99.90;;;;;;5054320;28;20226;-59
2021/06/22 12:19:27;;;;;;;2.50;1.52;;;30.20;99.90;;;;;;5057653;28;20168;-63
2021/06/22 12:21:57;;;;;;;3.13;1.90;;;30.10;99.90;;;;;;5055368;28;20171;-65
2021/06/22 12:24:23;;;;;;;2.42;1.50;;;30.20;99.90;;;;;;5054555;28;20200;-65
2021/06/22 12:26:52;;;;;;;1.63;1.30;;;30.30;99.90;;;;;;5055121;28;20195;-64
2021/06/22 12:29:26;;;;;;;2.78;1.50;;;30.10;99.90;;;;;;5055396;28;20217;-64
2021/06/22 12:32:00;;;;;;;1.60;1.33;;;30.80;99.90;;;;;;5054941;28;20281;-64
2021/06/22 12:34:29;;;;;;;2.08;1.42;;;31.80;99.90;;;;;;5057318;28;20182;-62
2021/06/22 12:36:56;;;;;;;1.77;1.30;;;30.40;99.90;;;;;;5055798;28;20530;-64
2021/06/22 12:39:23;;;;;;;3.00;1.83;;;;;;;;;;5055792;28;20218;-64
2021/06/22 12:41:49;;;;;;;1.70;1.45;;;31.10;99.90;;;;;;5054883;28;20163;-64
2021/06/22 12:44:15;;;;;;;3.10;1.80;;;;;;;;;;5054148;28;20249;-61
2021/06/22 12:46:42;;;;;;;2.80;1.70;;;31.60;99.90;;;;;;5054613;28;20199;-61
2021/06/22 12:49:11;;;;;;;2.13;1.63;;;31.90;99.90;;;;;;5053643;28;20203;-64
2021/06/22 12:51:47;;;;;;;2.00;1.65;;;31.50;99.90;;;;;;5054470;28;20171;-63
2021/06/22 12:54:14;;;;;;;2.25;1.50;;;31.70;99.90;;;;;;5057846;28;20167;-63
2021/06/22 12:56:56;;;;;;;4.53;1.60;;;31.80;99.90;;;;;;5053410;28;20337;-64
2021/06/22 12:59:26;;;;;;;1.70;1.30;;;31.70;99.90;;;;;;5055103;28;20174;-62
2021/06/22 13:02:06;;;;;;;2.03;1.42;;;31.80;99.90;;;;;;5053503;28;20240;-64
2021/06/22 13:04:45;;;;;;;3.55;1.63;;;31.10;99.90;;;;;;5054278;28;20519;-64